Time;durP1;ratioP1;P1;durP2;ratioP2;P2;SDS_P1;SDS_P2;PMS_P1;PMS_P2;Temp;Humidity;BMP_temperature;BMP_pressure;BME280_temperature;BME280_humidity;BME280_pressure;Samples;Min_cycle;Max_cycle;Signal;HPM_P1;HPM_P2
2023/01/06 00:01:32;;;;;;;;;;;;;;;12.36;75.61;101347.03;5062175;28;20320;-83
2023/01/06 00:03:58;;;;;;;;;;;;;;;12.31;75.71;101352.00;5093553;28;20398;-83
2023/01/06 00:06:26;;;;;;;;;;;;;;;12.34;75.77;101362.69;5067847;28;19979;-84
2023/01/06 00:08:55;;;;;;;;;;;;;;;12.31;75.68;101369.44;5076076;28;20409;-84
2023/01/06 00:11:20;;;;;;;;;;;;;;;12.34;75.45;101367.00;5108268;28;19920;-84
2023/01/06 00:13:53;;;;;;;;;;;;;;;12.33;75.53;101371.34;5107951;28;19973;-84
2023/01/06 00:16:19;;;;;;;;;;;;;;;12.32;75.55;101372.16;5093523;28;19924;-84
2023/01/06 00:18:44;;;;;;;;;;;;;;;12.33;75.62;101367.81;5093467;28;20519;-84
2023/01/06 00:21:10;;;;;;;;;;;;;;;12.31;75.45;101374.69;5092997;28;19916;-84
2023/01/06 00:23:36;;;;;;;;;;;;;;;12.32;75.50;101376.47;5108004;28;19924;-84
2023/01/06 00:26:02;;;;;;;;;;;;;;;12.33;75.51;101386.16;5092936;28;19923;-84
2023/01/06 00:28:27;;;;;;;;;;;;;;;12.31;75.52;101377.31;5054227;28;19927;-84
2023/01/06 00:30:53;;;;;;;;;;;;;;;12.30;75.86;101376.41;5092156;28;19916;-84
2023/01/06 00:33:18;;;;;;;;;;;;;;;12.33;75.75;101380.91;5097674;28;19927;-84
2023/01/06 00:35:43;;;;;;;;;;;;;;;12.30;75.63;101376.41;5072423;28;19982;-84
2023/01/06 00:38:09;;;;;;;;;;;;;;;12.29;75.59;101371.09;5072404;28;19920;-84
2023/01/06 00:40:35;;;;;;;;;;;;;;;12.30;75.33;101381.66;5054863;28;19921;-83
2023/01/06 00:43:00;;;;;;;;;;;;;;;12.32;75.22;101377.41;5054850;28;19939;-84
2023/01/06 00:45:25;;;;;;;;;;;;;;;12.28;75.43;101377.16;5072859;28;20012;-84
2023/01/06 00:47:51;;;;;;;;;;;;;;;12.32;75.37;101384.34;5087246;28;19920;-84
2023/01/06 00:50:16;;;;;;;;;;;;;;;12.30;75.42;101384.28;5072093;28;19989;-84
2023/01/06 00:52:42;;;;;;;;;;;;;;;12.29;75.85;101389.41;5075956;28;20419;-84
2023/01/06 00:55:07;;;;;;;;;;;;;;;12.33;75.74;101399.25;5079648;28;20437;-84
2023/01/06 00:57:32;;;;;;;;;;;;;;;12.29;75.80;101392.03;5081791;28;19988;-83
2023/01/06 00:59:58;;;;;;;;;;;;;;;12.31;75.74;101391.31;5083008;28;19916;-83
2023/01/06 01:02:23;;;;;;;;;;;;;;;12.30;75.81;101400.00;5072483;28;19920;-83
2023/01/06 01:04:49;;;;;;;;;;;;;;;12.31;75.32;101403.50;5072397;28;19943;-83
2023/01/06 01:07:14;;;;;;;;;;;;;;;12.30;75.65;101392.13;5074705;28;20385;-84
2023/01/06 01:09:39;;;;;;;;;;;;;;;12.32;75.50;101394.81;5054603;28;20425;-83
2023/01/06 01:12:11;;;;;;;;;;;;;;;12.32;75.33;101400.03;5073952;28;20074;-83
2023/01/06 01:14:36;;;;;;;;;;;;;;;12.27;75.13;101412.88;5091323;28;19932;-83
2023/01/06 01:17:02;;;;;;;;;;;;;;;12.28;75.54;101405.97;5071765;28;19920;-84
2023/01/06 01:19:27;;;;;;;;;;;;;;;12.30;75.38;101405.22;5071522;28;19920;-84
2023/01/06 01:21:53;;;;;;;;;;;;;;;12.29;75.18;101402.50;5080435;28;19917;-84
2023/01/06 01:24:19;;;;;;;;;;;;;;;12.26;75.08;101400.63;5072056;28;20362;-84
2023/01/06 01:26:44;;;;;;;;;;;;;;;12.26;75.38;101412.81;5095397;28;19916;-83
2023/01/06 01:29:11;;;;;;;;;;;;;;;12.29;75.51;101403.41;5086916;28;19920;-83
2023/01/06 01:31:36;;;;;;;;;;;;;;;12.30;74.71;101404.31;5074654;28;19924;-83
2023/01/06 01:34:01;;;;;;;;;;;;;;;12.26;75.29;101424.19;5058021;28;19920;-83
2023/01/06 01:36:27;;;;;;;;;;;;;;;12.27;75.12;101427.69;5072908;28;20298;-83
2023/01/06 01:38:54;;;;;;;;;;;;;;;12.27;75.50;101425.97;5070410;28;20315;-84
2023/01/06 01:41:20;;;;;;;;;;;;;;;12.26;75.52;101437.28;5087091;28;20614;-83
2023/01/06 01:43:45;;;;;;;;;;;;;;;12.28;75.46;101445.25;5085781;28;20011;-84
2023/01/06 01:46:11;;;;;;;;;;;;;;;12.28;75.33;101432.16;5071299;28;19971;-84
2023/01/06 01:48:36;;;;;;;;;;;;;;;12.29;74.95;101428.69;5053211;28;19959;-83
2023/01/06 01:51:03;;;;;;;;;;;;;;;12.27;75.40;101440.78;5085836;28;20416;-83
2023/01/06 01:53:30;;;;;;;;;;;;;;;12.28;75.23;101442.63;5053295;28;20368;-84
2023/01/06 01:55:56;;;;;;;;;;;;;;;12.25;74.91;101443.31;5080393;28;19971;-84
2023/01/06 01:58:26;;;;;;;;;;;;;;;12.25;75.63;101431.94;5088147;28;19924;-83
2023/01/06 02:00:51;;;;;;;;;;;;;;;12.25;75.78;101430.22;5052271;28;20019;-83
2023/01/06 02:03:17;;;;;;;;;;;;;;;12.25;75.32;101435.47;5085038;28;20011;-83
2023/01/06 02:05:43;;;;;;;;;;;;;;;12.26;75.05;101439.91;5078632;28;19952;-84
2023/01/06 02:08:24;;;;;;;;;;;;;;;12.26;75.30;101434.66;5083201;28;20370;-84
2023/01/06 02:10:49;;;;;;;;;;;;;;;12.27;75.14;101420.75;5064291;28;20386;-84
2023/01/06 02:13:14;;;;;;;;;;;;;;;12.30;75.08;101425.28;5083323;28;19927;-83
2023/01/06 02:15:40;;;;;;;;;;;;;;;12.24;74.87;101417.97;5069295;28;20544;-83
2023/01/06 02:18:06;;;;;;;;;;;;;;;12.27;75.13;101417.22;5053116;28;20530;-84
2023/01/06 02:20:32;;;;;;;;;;;;;;;12.29;75.16;101424.34;5070409;28;19921;-83
2023/01/06 02:23:15;;;;;;;;;;;;;;;12.26;74.89;101420.69;5070949;28;20449;-84
2023/01/06 02:25:43;;;;;;;;;;;;;;;12.27;75.25;101422.47;5070724;28;20024;-84
2023/01/06 02:28:28;;;;;;;;;;;;;;;12.25;74.75;101425.00;5070312;28;20320;-84
2023/01/06 02:31:11;;;;;;;;;;;;;;;12.27;74.77;101425.97;5070753;28;19964;-83
2023/01/06 02:33:56;;;;;;;;;;;;;;;12.29;74.95;101436.56;5069741;28;19920;-84
2023/01/06 02:36:25;;;;;;;;;;;;;;;12.27;74.74;101444.31;5073121;28;19924;-84
2023/01/06 02:38:57;;;;;;;;;;;;;;;12.30;74.57;101446.22;5076381;28;19917;-84
2023/01/06 02:41:42;;;;;;;;;;;;;;;12.29;74.96;101445.31;5074492;28;19920;-84
2023/01/06 02:44:10;;;;;;;;;;;;;;;12.29;74.53;101439.16;5093324;28;20461;-84
2023/01/06 02:47:14;;;;;;;;;;;;;;;12.28;74.94;101442.63;5071308;28;20415;-84
2023/01/06 02:50:00;;;;;;;;;;;;;;;12.29;74.73;101441.78;5060373;28;19928;-84
2023/01/06 02:52:34;;;;;;;;;;;;;;;12.29;74.61;101429.59;5040496;28;19924;-84
2023/01/06 02:55:03;;;;;;;;;;;;;;;12.28;74.42;101434.75;5067757;28;19927;-85
2023/01/06 02:57:47;;;;;;;;;;;;;;;12.28;74.66;101434.75;5084648;28;19916;-83
2023/01/06 03:00:20;;;;;;;;;;;;;;;12.26;74.99;101434.66;5070361;28;19916;-83
2023/01/06 03:02:47;;;;;;;;;;;;;;;12.29;74.78;101433.94;5082084;28;19929;-83
2023/01/06 03:05:13;;;;;;;;;;;;;;;12.26;74.55;101432.03;5086547;28;20516;-84
2023/01/06 03:07:38;;;;;;;;;;;;;;;12.29;74.35;101428.69;5085699;28;20015;-83
2023/01/06 03:10:04;;;;;;;;;;;;;;;12.28;74.50;101433.03;5081155;28;19963;-84
2023/01/06 03:12:31;;;;;;;;;;;;;;;12.29;74.39;101423.47;5070599;28;19981;-83
2023/01/06 03:14:56;;;;;;;;;;;;;;;12.21;74.92;101423.00;5076164;28;20389;-84
2023/01/06 03:17:22;;;;;;;;;;;;;;;12.22;74.80;101414.34;5070298;28;20069;-84
2023/01/06 03:19:48;;;;;;;;;;;;;;;12.29;74.34;101410.38;5076523;28;19939;-84
2023/01/06 03:22:13;;;;;;;;;;;;;;;12.25;74.50;101405.75;5077497;28;19964;-84
2023/01/06 03:24:38;;;;;;;;;;;;;;;12.27;74.45;101398.91;5052254;28;20385;-84
2023/01/06 03:27:04;;;;;;;;;;;;;;;12.27;74.28;101389.31;5086121;28;19916;-84
2023/01/06 03:29:30;;;;;;;;;;;;;;;12.29;74.55;101392.94;5071663;28;19917;-84
2023/01/06 03:32:04;;;;;;;;;;;;;;;12.30;74.45;101399.09;5078765;28;19932;-84
2023/01/06 03:34:48;;;;;;;;;;;;;;;12.28;74.63;101406.84;5069858;28;20415;-84
2023/01/06 03:37:20;;;;;;;;;;;;;;;12.27;74.65;101414.63;5070238;28;19920;-84
2023/01/06 03:40:03;;;;;;;;;;;;;;;12.22;74.68;101415.25;5069967;28;20385;-85
2023/01/06 03:45:31;;;;;;;;;;;;;;;12.25;74.74;101442.44;5080254;28;19970;-84
2023/01/06 03:48:12;;;;;;;;;;;;;;;12.24;74.13;101446.75;5085508;28;19928;-84
2023/01/06 03:50:39;;;;;;;;;;;;;;;12.27;74.45;101448.66;5069530;28;19916;-85
2023/01/06 03:53:14;;;;;;;;;;;;;;;12.27;74.63;101457.41;5063908;28;19920;-84
2023/01/06 03:55:39;;;;;;;;;;;;;;;12.26;74.52;101449.47;5082385;28;20405;-84
2023/01/06 03:58:05;;;;;;;;;;;;;;;12.28;74.52;101454.00;5072526;28;19920;-84
2023/01/06 04:00:31;;;;;;;;;;;;;;;12.22;74.73;101459.75;5051270;28;20070;-84
2023/01/06 04:02:56;;;;;;;;;;;;;;;12.27;74.86;101464.38;5087208;28;19947;-83
2023/01/06 04:05:22;;;;;;;;;;;;;;;12.27;74.00;101462.66;5089317;28;19917;-83
2023/01/06 04:07:48;;;;;;;;;;;;;;;12.30;74.26;101472.41;5071323;28;19956;-84
2023/01/06 04:10:14;;;;;;;;;;;;;;;12.31;74.28;101484.69;5088522;28;19959;-84
2023/01/06 04:12:40;;;;;;;;;;;;;;;12.29;74.21;101486.31;5071553;28;20386;-84
2023/01/06 04:15:06;;;;;;;;;;;;;;;12.25;74.55;101493.06;5089010;28;20011;-85
2023/01/06 04:17:31;;;;;;;;;;;;;;;12.25;74.57;101497.41;5086184;28;20018;-84
2023/01/06 04:19:56;;;;;;;;;;;;;;;12.24;74.79;101504.38;5048175;28;19925;-83
2023/01/06 04:22:22;;;;;;;;;;;;;;;12.27;74.60;101514.13;5071392;28;19964;-84
2023/01/06 04:24:47;;;;;;;;;;;;;;;12.27;74.53;101509.78;5072567;28;20397;-83
2023/01/06 04:27:13;;;;;;;;;;;;;;;12.27;74.49;101522.88;5055127;28;19920;-84
2023/01/06 04:29:38;;;;;;;;;;;;;;;12.27;74.90;101532.44;5088150;28;20410;-84
2023/01/06 04:32:04;;;;;;;;;;;;;;;12.26;74.65;101533.28;5073083;28;20313;-84
2023/01/06 04:34:29;;;;;;;;;;;;;;;12.26;74.91;101541.13;5092505;28;20474;-85
2023/01/06 04:36:54;;;;;;;;;;;;;;;12.23;74.74;101544.44;5084427;28;19920;-84
2023/01/06 04:39:20;;;;;;;;;;;;;;;12.25;75.02;101547.16;5072898;28;20381;-84
2023/01/06 04:41:45;;;;;;;;;;;;;;;12.24;74.72;101543.66;5072167;28;20698;-84
2023/01/06 04:44:11;;;;;;;;;;;;;;;12.26;74.65;101551.63;5081158;28;20003;-84
2023/01/06 04:46:36;;;;;;;;;;;;;;;12.26;74.54;101554.22;5074622;28;20302;-84
2023/01/06 04:49:02;;;;;;;;;;;;;;;12.25;74.73;101553.31;5071507;28;20039;-84
2023/01/06 04:51:27;;;;;;;;;;;;;;;12.22;74.65;101542.66;5050903;28;20685;-83
2023/01/06 04:53:52;;;;;;;;;;;;;;;12.22;74.85;101561.00;5070951;28;19980;-84
2023/01/06 04:56:18;;;;;;;;;;;;;;;12.27;74.75;101553.41;5071387;28;19989;-84
2023/01/06 04:58:43;;;;;;;;;;;;;;;12.22;75.18;101556.66;5054153;28;19927;-84
2023/01/06 05:01:09;;;;;;;;;;;;;;;12.22;75.02;101561.00;5067291;28;19986;-83
2023/01/06 05:03:35;;;;;;;;;;;;;;;12.22;75.14;101559.28;5087168;28;20015;-83
2023/01/06 05:06:05;;;;;;;;;;;;;;;12.26;74.67;101569.94;5073704;28;19924;-83
2023/01/06 05:08:30;;;;;;;;;;;;;;;12.22;74.75;101569.75;5037026;28;20485;-83
2023/01/06 05:10:59;;;;;;;;;;;;;;;12.25;74.82;101569.00;5086761;28;20023;-83
2023/01/06 05:13:25;;;;;;;;;;;;;;;12.19;74.79;101564.34;5049362;28;19969;-82
2023/01/06 05:15:50;;;;;;;;;;;;;;;12.25;74.98;101562.88;5071788;28;19928;-83
2023/01/06 05:18:15;;;;;;;;;;;;;;;12.22;74.71;101556.66;5083869;28;20415;-83
2023/01/06 05:20:41;;;;;;;;;;;;;;;12.22;74.87;101564.50;5072087;28;20372;-83
2023/01/06 05:23:06;;;;;;;;;;;;;;;12.21;74.88;101575.81;5071047;28;20444;-82
2023/01/06 05:25:32;;;;;;;;;;;;;;;12.22;74.63;101577.59;5087915;28;19927;-83
2023/01/06 05:27:57;;;;;;;;;;;;;;;12.21;74.78;101577.50;5085928;28;20398;-83
2023/01/06 05:30:23;;;;;;;;;;;;;;;12.21;74.82;101577.50;5071827;28;19920;-83
2023/01/06 05:32:48;;;;;;;;;;;;;;;12.20;75.10;101581.84;5071181;28;20547;-83
2023/01/06 05:35:13;;;;;;;;;;;;;;;12.20;74.97;101580.94;5070187;28;20373;-84
2023/01/06 05:37:39;;;;;;;;;;;;;;;12.21;75.18;101583.66;5074670;28;19925;-84
2023/01/06 05:40:07;;;;;;;;;;;;;;;12.21;75.26;101580.13;5070391;28;21348;-84
2023/01/06 05:42:32;;;;;;;;;;;;;;;12.21;75.05;101582.72;5071786;28;19978;-83
2023/01/06 05:44:58;;;;;;;;;;;;;;;12.19;75.12;101587.91;5071340;28;19927;-83
2023/01/06 05:47:23;;;;;;;;;;;;;;;12.25;74.83;101586.47;5071196;28;19928;-83
2023/01/06 05:49:48;;;;;;;;;;;;;;;12.22;74.91;101595.03;5070789;28;20011;-83
2023/01/06 05:52:14;;;;;;;;;;;;;;;12.20;74.75;101594.94;5069187;28;19955;-83
2023/01/06 05:54:39;;;;;;;;;;;;;;;12.20;74.96;101597.56;5070706;28;19925;-83
2023/01/06 05:57:05;;;;;;;;;;;;;;;12.19;74.79;101594.84;5084754;28;20082;-83
2023/01/06 05:59:31;;;;;;;;;;;;;;;12.20;74.75;101600.16;5052564;28;20458;-84
2023/01/06 06:01:56;;;;;;;;;;;;;;;12.20;74.90;101608.03;5070983;28;20026;-85
2023/01/06 06:04:22;;;;;;;;;;;;;;;12.19;74.81;101603.63;5086343;28;19920;-85
2023/01/06 06:06:47;;;;;;;;;;;;;;;12.17;74.85;101599.06;5087455;28;20377;-86
2023/01/06 06:09:12;;;;;;;;;;;;;;;12.17;75.03;101605.25;5086159;28;20402;-84
2023/01/06 06:11:38;;;;;;;;;;;;;;;12.17;74.79;101614.78;5086917;28;20355;-84
2023/01/06 06:14:03;;;;;;;;;;;;;;;12.18;74.86;101620.13;5052306;28;19920;-83
2023/01/06 06:16:29;;;;;;;;;;;;;;;12.15;74.78;101625.19;5084342;28;19921;-84
2023/01/06 06:18:55;;;;;;;;;;;;;;;12.19;74.68;101623.63;5086364;28;19967;-84
2023/01/06 06:21:22;;;;;;;;;;;;;;;12.18;74.95;101619.22;5082156;28;19917;-84
2023/01/06 06:23:47;;;;;;;;;;;;;;;12.18;74.27;101622.75;5078999;28;19997;-85
2023/01/06 06:26:13;;;;;;;;;;;;;;;12.18;73.96;101614.88;5084141;28;19925;-86
2023/01/06 06:28:39;;;;;;;;;;;;;;;12.22;74.18;101618.59;5084890;28;19921;-86
2023/01/06 06:31:12;;;;;;;;;;;;;;;12.24;73.12;101614.38;5085617;28;19916;-83
2023/01/06 06:33:38;;;;;;;;;;;;;;;12.07;71.11;101623.81;5086237;28;19928;-86
2023/01/06 06:36:04;;;;;;;;;;;;;;;12.10;73.78;101636.19;5084958;28;19921;-86
2023/01/06 06:38:29;;;;;;;;;;;;;;;12.04;73.02;101656.72;5070824;28;20370;-84
2023/01/06 06:40:55;;;;;;;;;;;;;;;12.07;73.54;101668.31;5086809;28;19924;-86
2023/01/06 06:43:20;;;;;;;;;;;;;;;12.15;72.93;101658.28;5086191;28;20308;-84
2023/01/06 06:45:46;;;;;;;;;;;;;;;12.19;73.47;101668.16;5086019;28;19920;-86
2023/01/06 06:48:12;;;;;;;;;;;;;;;12.20;73.40;101656.88;5086312;28;19920;-86
2023/01/06 06:50:37;;;;;;;;;;;;;;;12.19;73.50;101639.34;5085770;28;19917;-86
2023/01/06 06:53:02;;;;;;;;;;;;;;;12.20;73.60;101633.31;5086100;28;19916;-86
2023/01/06 06:55:28;;;;;;;;;;;;;;;12.19;73.79;101652.44;5069515;28;19916;-87
2023/01/06 06:57:53;;;;;;;;;;;;;;;12.20;73.79;101654.25;5086339;28;19947;-86
2023/01/06 07:00:19;;;;;;;;;;;;;;;12.19;74.01;101663.84;5086076;28;20290;-84
2023/01/06 07:02:48;;;;;;;;;;;;;;;12.20;74.05;101669.97;5086228;28;20006;-85
2023/01/06 07:05:13;;;;;;;;;;;;;;;12.19;73.50;101670.78;5069067;28;20016;-85
2023/01/06 07:07:39;;;;;;;;;;;;;;;12.19;73.22;101683.88;5070047;28;19964;-85
2023/01/06 07:10:04;;;;;;;;;;;;;;;12.16;73.48;101668.88;5075353;28;19919;-85
2023/01/06 07:12:30;;;;;;;;;;;;;;;12.19;73.19;101655.06;5089980;28;19916;-85
2023/01/06 07:14:55;;;;;;;;;;;;;;;12.18;73.73;101671.59;5070420;28;19965;-85
2023/01/06 07:17:25;;;;;;;;;;;;;;;12.16;73.47;101661.00;5085725;28;20305;-85
2023/01/06 07:19:50;;;;;;;;;;;;;;;12.18;73.44;101674.22;5085005;28;19917;-85
2023/01/06 07:22:15;;;;;;;;;;;;;;;12.18;73.70;101676.84;5085757;28;20373;-85
2023/01/06 07:24:41;;;;;;;;;;;;;;;12.15;73.18;101693.25;5070871;28;20389;-85
2023/01/06 07:27:06;;;;;;;;;;;;;;;12.16;73.60;101700.28;5070258;28;20382;-84
2023/01/06 07:29:32;;;;;;;;;;;;;;;12.17;73.46;101703.81;5069773;28;20394;-85
2023/01/06 07:31:58;;;;;;;;;;;;;;;12.18;73.61;101709.16;5068973;28;20466;-85
2023/01/06 07:34:24;;;;;;;;;;;;;;;12.15;73.67;101706.34;5069910;28;20004;-85
2023/01/06 07:36:49;;;;;;;;;;;;;;;12.15;73.28;101698.50;5071825;28;20066;-85
2023/01/06 07:39:14;;;;;;;;;;;;;;;12.15;73.27;101693.25;5095553;28;20018;-84
2023/01/06 07:41:40;;;;;;;;;;;;;;;12.22;73.24;101697.16;5075985;28;20377;-84
2023/01/06 07:44:05;;;;;;;;;;;;;;;12.14;73.76;101693.16;5082361;28;20393;-85
2023/01/06 07:46:31;;;;;;;;;;;;;;;12.14;73.53;101686.19;5074054;28;20449;-84
2023/01/06 07:48:56;;;;;;;;;;;;;;;12.14;73.21;101686.19;5073857;28;20401;-85
2023/01/06 07:51:21;;;;;;;;;;;;;;;12.17;73.58;101693.34;5089697;28;20250;-85
2023/01/06 07:53:47;;;;;;;;;;;;;;;12.11;73.94;101691.25;5089211;28;19920;-85
2023/01/06 07:56:12;;;;;;;;;;;;;;;12.12;73.20;101705.25;5089659;28;20378;-85
2023/01/06 07:58:38;;;;;;;;;;;;;;;12.12;73.41;101698.28;5073794;28;20463;-84
2023/01/06 08:01:04;;;;;;;;;;;;;;;12.13;72.95;101707.97;5072471;28;19916;-85
2023/01/06 08:03:29;;;;;;;;;;;;;;;12.07;72.88;101731.16;5088866;28;20307;-85
2023/01/06 08:05:54;;;;;;;;;;;;;;;12.11;72.46;101746.25;5052198;28;19923;-84
2023/01/06 08:08:20;;;;;;;;;;;;;;;12.07;72.44;101740.72;5089066;28;20467;-84
2023/01/06 08:10:45;;;;;;;;;;;;;;;12.04;73.20;101770.22;5073578;28;19924;-84
2023/01/06 08:13:11;;;;;;;;;;;;;;;12.07;72.29;101764.28;5088824;28;20400;-84
2023/01/06 08:15:36;;;;;;;;;;;;;;;12.08;72.55;101759.13;5073454;28;20011;-84
2023/01/06 08:18:02;;;;;;;;;;;;;;;12.06;72.86;101758.13;5089035;28;19959;-84
2023/01/06 08:20:27;;;;;;;;;;;;;;;12.06;72.65;101765.06;5073575;28;20294;-85
2023/01/06 08:22:53;;;;;;;;;;;;;;;12.11;71.91;101769.81;5072842;28;19962;-84
2023/01/06 08:25:18;;;;;;;;;;;;;;;12.10;72.69;101777.56;5089049;28;19993;-84
2023/01/06 08:27:43;;;;;;;;;;;;;;;12.06;72.63;101772.94;5090758;28;20345;-85
2023/01/06 08:30:09;;;;;;;;;;;;;;;12.08;72.48;101777.44;5073024;28;19923;-85
2023/01/06 08:32:34;;;;;;;;;;;;;;;12.10;72.87;101775.84;5092724;28;19917;-85
2023/01/06 08:35:00;;;;;;;;;;;;;;;12.10;72.16;101782.78;5074580;28;20397;-85
2023/01/06 08:37:25;;;;;;;;;;;;;;;12.05;72.28;101779.88;5074627;28;20351;-85
2023/01/06 08:39:51;;;;;;;;;;;;;;;12.07;72.41;101778.28;5088704;28;20345;-85
2023/01/06 08:42:17;;;;;;;;;;;;;;;12.10;72.34;101796.78;5088818;28;20428;-86
2023/01/06 08:44:43;;;;;;;;;;;;;;;12.10;72.44;101788.94;5055792;28;19970;-85
2023/01/06 08:47:08;;;;;;;;;;;;;;;12.07;72.61;101780.00;5088450;28;19917;-84
2023/01/06 08:49:34;;;;;;;;;;;;;;;12.13;72.16;101783.00;5088813;28;20393;-86
2023/01/06 08:51:59;;;;;;;;;;;;;;;12.09;72.39;101779.28;5088288;28;20378;-86
2023/01/06 08:54:26;;;;;;;;;;;;;;;12.12;71.99;101795.16;5088379;28;20471;-86
2023/01/06 08:56:51;;;;;;;;;;;;;;;12.09;72.34;101783.63;5090913;28;19951;-85
2023/01/06 08:59:17;;;;;;;;;;;;;;;12.07;72.85;101783.50;5082984;28;19998;-85
2023/01/06 09:01:42;;;;;;;;;;;;;;;12.06;72.53;101779.06;5088158;28;19974;-86
2023/01/06 09:04:08;;;;;;;;;;;;;;;12.07;72.40;101780.91;5088753;28;20417;-85
2023/01/06 09:06:34;;;;;;;;;;;;;;;12.07;72.98;101772.13;5071351;28;19917;-85
2023/01/06 09:09:00;;;;;;;;;;;;;;;12.11;71.85;101774.16;5087781;28;19924;-85
2023/01/06 09:11:25;;;;;;;;;;;;;;;12.12;71.74;101775.94;5070979;28;20019;-85
2023/01/06 09:13:51;;;;;;;;;;;;;;;12.17;71.64;101770.22;5087644;28;19916;-84
2023/01/06 09:16:16;;;;;;;;;;;;;;;12.11;71.91;101759.34;5072240;28;19945;-85
2023/01/06 09:18:47;;;;;;;;;;;;;;;12.11;72.16;101759.34;5070986;28;19928;-84
2023/01/06 09:21:12;;;;;;;;;;;;;;;12.15;71.58;101755.19;5087555;28;19920;-84
2023/01/06 09:23:38;;;;;;;;;;;;;;;12.09;71.80;101757.44;5068233;28;19925;-85
2023/01/06 09:26:03;;;;;;;;;;;;;;;12.09;72.27;101754.81;5085854;28;19924;-86
2023/01/06 09:28:29;;;;;;;;;;;;;;;12.12;71.72;101768.09;5072307;28;20400;-85
2023/01/06 09:30:54;;;;;;;;;;;;;;;12.16;72.28;101763.13;5052811;28;20347;-85
2023/01/06 09:33:19;;;;;;;;;;;;;;;12.18;72.00;101763.25;5086008;28;19920;-85
2023/01/06 09:35:45;;;;;;;;;;;;;;;12.16;72.26;101764.84;5045443;28;20475;-85
2023/01/06 09:38:11;;;;;;;;;;;;;;;12.19;72.19;101768.59;5075882;28;20353;-85
2023/01/06 09:40:49;;;;;;;;;;;;;;;12.30;72.04;101765.75;5066067;28;20394;-85
2023/01/06 09:43:32;;;;;;;;;;;;;;;12.19;71.49;101778.13;5062598;28;19928;-86
2023/01/06 09:46:00;;;;;;;;;;;;;;;12.29;71.84;101779.63;5070376;28;20521;-85
2023/01/06 09:48:28;;;;;;;;;;;;;;;12.27;71.73;101789.09;5080087;28;19928;-83
2023/01/06 09:50:56;;;;;;;;;;;;;;;12.28;71.59;101780.47;5045471;28;20412;-84
2023/01/06 09:53:26;;;;;;;;;;;;;;;12.23;71.17;101782.75;5084155;28;19962;-86
2023/01/06 09:55:56;;;;;;;;;;;;;;;12.19;71.45;101776.44;5069110;28;20015;-84
2023/01/06 09:58:24;;;;;;;;;;;;;;;12.26;72.04;101776.84;5053026;28;19940;-84
2023/01/06 10:00:51;;;;;;;;;;;;;;;12.29;71.91;101780.53;5069528;28;19924;-85
2023/01/06 10:03:18;;;;;;;;;;;;;;;12.27;71.91;101771.66;5070262;28;20058;-85
2023/01/06 10:05:58;;;;;;;;;;;;;;;12.29;71.76;101769.16;5084744;28;19927;-84
2023/01/06 10:08:32;;;;;;;;;;;;;;;12.25;71.83;101769.78;5057155;28;19924;-84
2023/01/06 10:11:09;;;;;;;;;;;;;;;12.27;72.09;101762.91;5067521;28;20390;-84
2023/01/06 10:13:55;;;;;;;;;;;;;;;12.18;71.92;101764.16;5052579;28;19925;-82
2023/01/06 10:16:25;;;;;;;;;;;;;;;12.24;72.00;101768.88;5087370;28;19935;-85
2023/01/06 10:19:16;;;;;;;;;;;;;;;12.19;71.92;101754.56;5088451;28;20028;-84
2023/01/06 10:22:04;;;;;;;;;;;;;;;12.26;72.39;101761.13;5058385;28;19924;-85
2023/01/06 10:24:40;;;;;;;;;;;;;;;12.27;71.45;101762.91;5067390;28;19920;-85
2023/01/06 10:27:08;;;;;;;;;;;;;;;12.21;72.07;101772.22;5084575;28;19920;-85
2023/01/06 10:29:34;;;;;;;;;;;;;;;12.32;71.88;101767.66;5071387;28;20402;-85
2023/01/06 10:32:00;;;;;;;;;;;;;;;12.32;71.95;101769.34;5087039;28;19924;-84
2023/01/06 10:34:26;;;;;;;;;;;;;;;12.34;71.78;101771.28;5085059;28;20393;-84
2023/01/06 10:37:11;;;;;;;;;;;;;;;12.28;72.10;101759.50;5085612;28;19924;-84
2023/01/06 10:39:37;;;;;;;;;;;;;;;12.31;72.21;101763.19;5080207;28;19920;-84
2023/01/06 10:44:46;;;;;;;;;;;;;;;12.28;71.68;101773.50;5070747;28;19928;-84
2023/01/06 10:47:19;;;;;;;;;;;;;;;12.22;71.85;101755.66;5070965;28;19920;-84
2023/01/06 10:49:44;;;;;;;;;;;;;;;12.31;71.48;101767.53;5086776;28;19932;-84
2023/01/06 10:52:10;;;;;;;;;;;;;;;12.30;72.07;101765.75;5076290;28;19920;-86
2023/01/06 10:54:35;;;;;;;;;;;;;;;12.35;71.84;101753.84;5089694;28;20421;-85
2023/01/06 10:57:05;;;;;;;;;;;;;;;12.34;71.35;101758.16;5052437;28;19942;-85
2023/01/06 10:59:30;;;;;;;;;;;;;;;12.31;71.81;101768.44;5053108;28;19964;-84
2023/01/06 11:01:55;;;;;;;;;;;;;;;12.32;71.54;101770.25;5083708;28;19968;-84
2023/01/06 11:04:21;;;;;;;;;;;;;;;12.29;71.75;101771.78;5071059;28;20015;-84
2023/01/06 11:06:48;;;;;;;;;;;;;;;12.29;71.89;101777.00;5074394;28;19928;-83
2023/01/06 11:09:40;;;;;;;;;;;;;;;12.30;72.06;101761.41;5069272;28;19971;-84
2023/01/06 11:12:09;;;;;;;;;;;;;;;12.29;72.39;101769.16;5064147;28;19956;-84
2023/01/06 11:14:34;;;;;;;;;;;;;;;12.29;72.73;101774.41;5049813;28;19928;-84
2023/01/06 11:17:01;;;;;;;;;;;;;;;12.30;72.61;101771.00;5070148;28;19928;-84
2023/01/06 11:19:32;;;;;;;;;;;;;;;12.26;72.04;101772.50;5081004;28;19931;-86
2023/01/06 11:21:58;;;;;;;;;;;;;;;12.31;72.26;101763.19;5065819;28;20317;-87
2023/01/06 11:24:24;;;;;;;;;;;;;;;12.30;71.44;101766.66;5070555;28;19916;-87
2023/01/06 11:26:50;;;;;;;;;;;;;;;12.28;72.87;101757.78;5084819;28;19917;-87
2023/01/06 11:29:17;;;;;;;;;;;;;;;12.32;72.38;101759.78;5071187;28;19917;-87
2023/01/06 11:31:45;;;;;;;;;;;;;;;12.33;72.42;101764.19;5075969;28;19916;-86
2023/01/06 11:34:14;;;;;;;;;;;;;;;12.34;72.31;101771.28;5073666;28;19966;-88
2023/01/06 11:36:42;;;;;;;;;;;;;;;12.28;70.83;101773.50;5086917;28;20038;-87
2023/01/06 11:39:16;;;;;;;;;;;;;;;12.26;71.85;101774.22;5086216;28;19932;-87
2023/01/06 11:41:46;;;;;;;;;;;;;;;12.24;72.01;101774.13;5068623;28;19920;-87
2023/01/06 11:44:11;;;;;;;;;;;;;;;12.28;71.72;101778.75;5085577;28;19920;-86
2023/01/06 11:46:37;;;;;;;;;;;;;;;12.34;71.90;101788.69;5070340;28;20329;-86
2023/01/06 11:49:06;;;;;;;;;;;;;;;12.34;72.31;101786.97;5086313;28;20400;-86
2023/01/06 11:51:46;;;;;;;;;;;;;;;12.33;72.54;101793.00;5066475;28;20301;-85
2023/01/06 11:54:20;;;;;;;;;;;;;;;12.30;72.82;101790.22;5066759;28;19920;-86
2023/01/06 11:57:07;;;;;;;;;;;;;;;12.27;73.16;101787.38;5068994;28;20033;-87
2023/01/06 11:59:43;;;;;;;;;;;;;;;12.34;72.79;101793.91;5085865;28;19917;-87
2023/01/06 12:02:10;;;;;;;;;;;;;;;12.35;73.23;101785.25;5068713;28;19912;-87
2023/01/06 12:04:38;;;;;;;;;;;;;;;12.40;71.84;101789.06;5086164;28;19923;-87
2023/01/06 12:07:06;;;;;;;;;;;;;;;12.38;72.78;101783.75;5084797;28;19940;-87
2023/01/06 12:09:38;;;;;;;;;;;;;;;12.42;72.99;101796.25;5075562;28;19960;-87
2023/01/06 12:12:06;;;;;;;;;;;;;;;12.43;72.54;101787.56;5053721;28;19935;-88
2023/01/06 12:14:38;;;;;;;;;;;;;;;12.45;72.79;101778.91;5052782;28;20441;-87
2023/01/06 12:17:15;;;;;;;;;;;;;;;12.50;72.21;101801.94;5076040;28;20351;-86
2023/01/06 12:19:44;;;;;;;;;;;;;;;12.51;72.63;101781.88;5062534;28;19925;-87
2023/01/06 12:22:32;;;;;;;;;;;;;;;12.40;73.08;101784.75;5067601;28;21912;-87
2023/01/06 12:24:58;;;;;;;;;;;;;;;12.45;71.08;101784.13;5060855;28;19986;-86
2023/01/06 12:27:29;;;;;;;;;;;;;;;12.54;71.73;101796.06;5086795;28;19956;-86
2023/01/06 12:29:56;;;;;;;;;;;;;;;12.61;70.95;101799.97;5082735;28;19920;-85
2023/01/06 12:32:22;;;;;;;;;;;;;;;12.55;71.13;101805.78;5082376;28;19920;-87
2023/01/06 12:34:49;;;;;;;;;;;;;;;12.47;71.50;101807.00;5072409;28;19924;-87
2023/01/06 12:37:35;;;;;;;;;;;;;;;12.50;71.10;101809.78;5094846;28;19920;-86
2023/01/06 12:40:05;;;;;;;;;;;;;;;12.54;70.81;101808.28;5069291;28;19920;-87
2023/01/06 12:42:33;;;;;;;;;;;;;;;12.57;70.88;101818.94;5073168;28;19921;-87
2023/01/06 12:45:01;;;;;;;;;;;;;;;12.50;70.68;101812.41;5087417;28;19974;-86